createdAt,value
2023-02-08T00:00:58.519Z,-1.50
2023-02-08T00:03:27.707Z,-1.70
2023-02-08T00:05:54.688Z,-1.60
2023-02-08T00:08:21.607Z,-1.60
2023-02-08T00:10:49.789Z,-1.50
2023-02-08T00:13:16.688Z,-1.30
2023-02-08T00:15:45.766Z,-1.50
2023-02-08T00:18:13.642Z,-1.60
2023-02-08T00:20:42.784Z,-1.70
2023-02-08T00:23:10.855Z,-1.60
2023-02-08T00:25:38.396Z,-1.60
2023-02-08T00:28:09.434Z,-1.60
2023-02-08T00:30:36.564Z,-1.70
2023-02-08T00:33:04.462Z,-1.70
2023-02-08T00:35:32.195Z,-1.60
2023-02-08T00:37:59.345Z,-1.70
2023-02-08T00:40:27.383Z,-1.80
2023-02-08T00:42:54.316Z,-1.70
2023-02-08T00:45:21.197Z,-1.60
2023-02-08T00:47:48.177Z,-1.50
2023-02-08T00:50:15.420Z,-1.60
2023-02-08T00:52:42.399Z,-1.30
2023-02-08T00:55:09.506Z,-1.30
2023-02-08T00:57:36.439Z,-1.40
2023-02-08T01:00:05.438Z,-1.50
2023-02-08T01:02:32.445Z,-1.60
2023-02-08T01:04:59.418Z,-1.60
2023-02-08T01:07:26.456Z,-1.60
2023-02-08T01:09:53.377Z,-1.60
2023-02-08T01:12:20.303Z,-1.70
2023-02-08T01:14:47.324Z,-1.60
2023-02-08T01:17:14.239Z,-1.70
2023-02-08T01:19:42.513Z,-1.70
2023-02-08T01:22:09.681Z,-1.70
2023-02-08T01:24:36.588Z,-1.80
2023-02-08T01:27:03.552Z,-1.70
2023-02-08T01:29:30.430Z,-1.70
2023-02-08T01:31:57.364Z,-1.80
2023-02-08T01:34:24.545Z,-1.80
2023-02-08T01:36:51.525Z,-1.80
2023-02-08T01:39:18.474Z,-1.80
2023-02-08T01:41:46.835Z,-1.80
2023-02-08T01:44:13.695Z,-1.90
2023-02-08T01:46:47.429Z,-1.80
2023-02-08T01:49:23.159Z,-1.70
2023-02-08T01:52:06.109Z,-1.70
2023-02-08T01:54:40.566Z,-1.80
2023-02-08T01:57:08.649Z,-1.70
2023-02-08T02:00:13.128Z,-1.70
2023-02-08T02:02:41.988Z,-1.80
2023-02-08T02:05:09.825Z,-1.90
2023-02-08T02:07:37.052Z,-1.90
2023-02-08T02:10:23.144Z,-1.90
2023-02-08T02:12:52.066Z,-2.00
2023-02-08T02:15:19.480Z,-1.90
2023-02-08T02:17:46.524Z,-1.80
2023-02-08T02:20:37.904Z,-1.80
2023-02-08T02:23:41.326Z,-1.90
2023-02-08T02:26:26.719Z,-1.80
2023-02-08T02:28:53.538Z,-2.00
2023-02-08T02:31:50.589Z,-1.80
2023-02-08T02:34:37.146Z,-1.90
2023-02-08T02:37:24.800Z,-1.80
2023-02-08T02:40:17.396Z,-1.90
2023-02-08T02:43:20.029Z,-1.90
2023-02-08T02:46:05.949Z,-1.90
2023-02-08T02:49:04.032Z,-1.90
2023-02-08T02:51:49.396Z,-1.90
2023-02-08T02:54:25.306Z,-2.00
2023-02-08T02:56:57.227Z,-1.90
2023-02-08T02:59:25.016Z,-2.00
2023-02-08T03:01:54.935Z,-2.10
2023-02-08T03:04:34.146Z,-2.20
2023-02-08T03:07:47.189Z,-1.90
2023-02-08T03:10:23.010Z,-2.10
2023-02-08T03:13:12.285Z,-2.10
2023-02-08T03:15:58.005Z,-2.00
2023-02-08T03:19:01.671Z,-2.00
2023-02-08T03:21:45.621Z,-1.90
2023-02-08T03:24:23.568Z,-2.10
2023-02-08T03:27:02.008Z,-2.20
2023-02-08T03:29:39.871Z,-2.20
2023-02-08T03:32:22.265Z,-2.10
2023-02-08T03:35:20.882Z,-2.30
2023-02-08T03:37:59.848Z,-2.20
2023-02-08T03:40:33.043Z,-2.30
2023-02-08T03:43:08.131Z,-2.40
2023-02-08T03:45:45.628Z,-2.30
2023-02-08T03:48:14.594Z,-2.40
2023-02-08T03:50:46.818Z,-2.40
2023-02-08T03:53:18.127Z,-2.30
2023-02-08T03:55:48.292Z,-2.30
2023-02-08T03:59:00.290Z,-2.30
2023-02-08T04:01:33.698Z,-2.50
2023-02-08T04:04:01.242Z,-2.60
2023-02-08T04:06:28.598Z,-2.60
2023-02-08T04:08:56.115Z,-2.50
2023-02-08T04:11:23.041Z,-2.40
2023-02-08T04:13:49.964Z,-2.50
2023-02-08T04:16:16.853Z,-2.60
2023-02-08T04:18:43.857Z,-2.50
2023-02-08T04:21:10.763Z,-2.60
2023-02-08T04:23:37.644Z,-2.70
2023-02-08T04:26:04.745Z,-2.70
2023-02-08T04:28:31.637Z,-2.90
2023-02-08T04:31:00.222Z,-2.90
2023-02-08T04:33:27.298Z,-3.00
2023-02-08T04:35:54.183Z,-3.00
2023-02-08T04:38:22.391Z,-3.00
2023-02-08T04:40:49.370Z,-3.00
2023-02-08T04:43:16.404Z,-2.90
2023-02-08T04:45:43.280Z,-2.90
2023-02-08T04:48:11.904Z,-2.90
2023-02-08T04:50:39.673Z,-2.90
2023-02-08T04:53:06.867Z,-3.10
2023-02-08T04:55:34.250Z,-3.10
2023-02-08T04:58:02.038Z,-3.20
2023-02-08T05:00:29.946Z,-3.20
2023-02-08T05:02:58.837Z,-3.20
2023-02-08T05:05:27.754Z,-3.20
2023-02-08T05:07:54.738Z,-3.20
2023-02-08T05:10:22.278Z,-3.20
2023-02-08T05:12:49.158Z,-3.30
2023-02-08T05:15:16.241Z,-3.20
2023-02-08T05:17:43.221Z,-3.10
2023-02-08T05:20:11.717Z,-3.30
2023-02-08T05:22:38.779Z,-3.30
2023-02-08T05:25:06.452Z,-3.30
2023-02-08T05:27:35.184Z,-3.20
2023-02-08T05:30:02.255Z,-3.30
2023-02-08T05:32:29.432Z,-3.20
2023-02-08T05:34:56.337Z,-3.20
2023-02-08T05:37:23.311Z,-3.30
2023-02-08T05:39:50.265Z,-3.20
2023-02-08T05:42:17.147Z,-3.40
2023-02-08T05:44:44.096Z,-3.50
2023-02-08T05:47:11.072Z,-3.40
2023-02-08T05:49:38.010Z,-3.40
2023-02-08T05:52:05.962Z,-3.30
2023-02-08T05:54:32.885Z,-3.30
2023-02-08T05:56:59.895Z,-3.30
2023-02-08T05:59:27.091Z,-3.30
2023-02-08T06:01:54.111Z,-3.30
2023-02-08T06:04:21.193Z,-3.30
2023-02-08T06:06:48.072Z,-3.20
2023-02-08T06:09:15.005Z,-3.40
2023-02-08T06:11:43.125Z,-3.30
2023-02-08T06:14:10.204Z,-3.20
2023-02-08T06:16:37.237Z,-3.20
2023-02-08T06:19:04.193Z,-3.30
2023-02-08T06:21:31.344Z,-3.40
2023-02-08T06:23:58.357Z,-3.30
2023-02-08T06:26:25.337Z,-3.30
2023-02-08T06:28:52.334Z,-3.30
2023-02-08T06:31:19.374Z,-3.20
2023-02-08T06:33:46.373Z,-3.20
2023-02-08T06:36:13.328Z,-3.30
2023-02-08T06:38:40.338Z,-3.20
2023-02-08T06:41:07.231Z,-3.00
2023-02-08T06:43:34.365Z,-3.10
2023-02-08T06:46:04.775Z,-3.10
2023-02-08T06:48:32.248Z,-3.10
2023-02-08T06:50:59.218Z,-3.10
2023-02-08T06:53:26.193Z,-3.10
2023-02-08T06:55:53.272Z,-2.90
2023-02-08T06:58:21.447Z,-3.20
2023-02-08T07:00:48.457Z,-3.20
2023-02-08T07:03:17.587Z,-3.10
2023-02-08T07:05:58.711Z,-3.20
2023-02-08T07:08:32.415Z,-3.20
2023-02-08T07:10:59.345Z,-3.10
2023-02-08T07:13:26.469Z,-3.10
2023-02-08T07:15:53.410Z,-3.20
2023-02-08T07:18:20.465Z,-3.20
2023-02-08T07:20:49.333Z,-3.20
2023-02-08T07:23:16.236Z,-3.10
2023-02-08T07:25:43.149Z,-3.10
2023-02-08T07:28:10.153Z,-3.00
2023-02-08T07:30:37.389Z,-3.00
2023-02-08T07:33:04.323Z,-2.90
2023-02-08T07:35:31.258Z,-2.80
2023-02-08T07:37:58.225Z,-2.70
2023-02-08T07:40:25.117Z,-2.70
2023-02-08T07:42:51.992Z,-2.60
2023-02-08T07:45:19.047Z,-2.60
2023-02-08T07:47:46.729Z,-2.40
2023-02-08T07:50:16.415Z,-2.40
2023-02-08T07:52:46.041Z,-2.40
2023-02-08T07:55:17.459Z,-2.40
2023-02-08T07:57:49.526Z,-2.30
2023-02-08T08:00:18.798Z,-2.20
2023-02-08T08:02:45.915Z,-2.10
2023-02-08T08:05:12.890Z,-2.10
2023-02-08T08:07:39.911Z,-1.90
2023-02-08T08:10:08.005Z,-2.00
2023-02-08T08:12:34.937Z,-1.90
2023-02-08T08:15:01.885Z,-1.80
2023-02-08T08:17:30.009Z,-1.70
2023-02-08T08:19:57.279Z,-1.60
2023-02-08T08:22:26.336Z,-1.60
2023-02-08T08:24:53.840Z,-1.50
2023-02-08T08:27:20.742Z,-1.40
2023-02-08T08:29:47.643Z,-1.40
2023-02-08T08:32:14.548Z,-1.30
2023-02-08T08:34:42.526Z,-1.20
2023-02-08T08:37:09.869Z,-1.10
2023-02-08T08:39:37.241Z,-0.90
2023-02-08T08:42:04.547Z,-0.90
2023-02-08T08:44:33.327Z,-0.90
2023-02-08T08:47:01.251Z,-0.80
2023-02-08T08:49:29.329Z,-0.60
2023-02-08T08:51:56.895Z,-0.60
2023-02-08T08:54:24.150Z,-0.60
2023-02-08T08:56:51.193Z,-0.50
2023-02-08T08:59:18.276Z,-0.50
2023-02-08T09:01:45.379Z,-0.50
2023-02-08T09:04:12.524Z,-0.40
2023-02-08T09:06:39.939Z,-0.30
2023-02-08T09:09:07.291Z,-0.20
2023-02-08T09:11:34.767Z,-0.30
2023-02-08T09:14:05.432Z,-0.20
2023-02-08T09:16:33.304Z,-0.10
2023-02-08T09:19:06.844Z,-0.10
2023-02-08T09:21:34.258Z,-0.10
2023-02-08T09:24:02.716Z,0.00
2023-02-08T09:26:30.178Z,0.10
2023-02-08T09:28:57.145Z,0.20
2023-02-08T09:31:33.691Z,0.50
2023-02-08T09:34:02.066Z,0.50
2023-02-08T09:36:34.342Z,0.50
2023-02-08T09:39:09.503Z,0.50
2023-02-08T09:42:22.520Z,0.60
2023-02-08T09:45:26.316Z,0.70
2023-02-08T09:48:29.475Z,0.80
2023-02-08T09:51:30.340Z,0.80
2023-02-08T09:54:05.117Z,0.90
2023-02-08T09:56:40.457Z,0.90
2023-02-08T09:59:18.351Z,1.00
2023-02-08T10:01:48.454Z,1.00
2023-02-08T10:04:34.735Z,1.10
2023-02-08T10:07:01.826Z,1.30
2023-02-08T10:09:29.197Z,1.20
2023-02-08T10:12:25.717Z,1.30
2023-02-08T10:15:12.983Z,1.40
2023-02-08T10:18:09.728Z,1.40
2023-02-08T10:20:57.835Z,1.50
2023-02-08T10:24:08.249Z,1.50
2023-02-08T10:27:06.086Z,1.50
2023-02-08T10:30:15.780Z,1.70
2023-02-08T10:32:57.746Z,1.60
2023-02-08T10:35:37.093Z,1.70
2023-02-08T10:38:19.432Z,1.70
2023-02-08T10:41:09.187Z,1.70
2023-02-08T10:43:44.829Z,1.90
2023-02-08T10:46:50.232Z,2.00
2023-02-08T10:49:58.266Z,1.90
2023-02-08T10:52:25.274Z,2.00
2023-02-08T10:54:53.348Z,2.10
2023-02-08T10:57:32.445Z,2.20
2023-02-08T11:00:05.010Z,2.20
2023-02-08T11:02:40.445Z,2.30
2023-02-08T11:05:15.096Z,2.40
2023-02-08T11:07:42.220Z,2.40
2023-02-08T11:10:25.660Z,2.40
2023-02-08T11:12:59.135Z,2.30
2023-02-08T11:15:40.498Z,2.30
2023-02-08T11:18:21.420Z,2.40
2023-02-08T11:20:52.496Z,2.50
2023-02-08T11:23:33.569Z,2.80
2023-02-08T11:26:18.164Z,2.80
2023-02-08T11:29:24.604Z,2.60
2023-02-08T11:32:02.154Z,2.70
2023-02-08T11:34:33.001Z,2.70
2023-02-08T11:37:05.017Z,2.70
2023-02-08T11:39:41.413Z,2.80
2023-02-08T11:42:37.680Z,3.00
2023-02-08T11:45:05.360Z,3.10
2023-02-08T11:47:38.871Z,3.20
2023-02-08T11:50:24.178Z,3.10
2023-02-08T11:53:01.059Z,3.00
2023-02-08T11:55:32.039Z,2.90
2023-02-08T11:58:12.993Z,3.10
2023-02-08T12:00:41.043Z,3.10
2023-02-08T12:03:22.876Z,3.10
2023-02-08T12:06:53.989Z,3.20
2023-02-08T12:09:42.713Z,3.30
2023-02-08T12:12:39.683Z,3.50
2023-02-08T12:15:57.159Z,3.50
2023-02-08T12:18:48.521Z,3.50
2023-02-08T12:21:23.124Z,3.50
2023-02-08T12:24:07.681Z,3.60
2023-02-08T12:26:40.432Z,3.50
2023-02-08T12:29:53.384Z,3.80
2023-02-08T12:32:45.420Z,3.60
2023-02-08T12:36:05.276Z,3.70
2023-02-08T12:39:26.103Z,3.70
2023-02-08T12:42:08.570Z,3.70
2023-02-08T12:44:54.780Z,3.70
2023-02-08T12:48:03.646Z,3.90
2023-02-08T12:50:55.020Z,3.90
2023-02-08T12:53:38.078Z,3.90
2023-02-08T12:56:17.057Z,3.90
2023-02-08T12:58:46.087Z,4.10
2023-02-08T13:01:32.400Z,4.10
2023-02-08T13:04:09.474Z,4.10
2023-02-08T13:06:47.645Z,4.10
2023-02-08T13:09:37.128Z,4.10
2023-02-08T13:12:24.127Z,4.10
2023-02-08T13:14:55.757Z,4.00
2023-02-08T13:17:31.185Z,4.20
2023-02-08T13:20:07.723Z,4.30
2023-02-08T13:22:42.573Z,4.30
2023-02-08T13:25:29.749Z,4.30
2023-02-08T13:28:18.097Z,4.30
2023-02-08T13:30:53.569Z,4.30
2023-02-08T13:33:36.296Z,4.40
2023-02-08T13:36:04.383Z,4.30
2023-02-08T13:38:34.928Z,4.30
2023-02-08T13:41:14.214Z,4.30
2023-02-08T13:43:53.985Z,4.40
2023-02-08T13:46:23.627Z,4.30
2023-02-08T13:48:57.241Z,4.30
2023-02-08T13:51:33.166Z,4.40
2023-02-08T13:54:00.351Z,4.40
2023-02-08T13:56:41.669Z,4.40
2023-02-08T13:59:25.283Z,4.50
2023-02-08T14:02:19.973Z,4.40
2023-02-08T14:04:50.315Z,4.60
2023-02-08T14:07:44.198Z,4.60
2023-02-08T14:10:46.906Z,4.50
2023-02-08T14:13:21.671Z,4.60
2023-02-08T14:16:30.138Z,4.60
2023-02-08T14:19:22.998Z,4.70
2023-02-08T14:22:00.967Z,4.80
2023-02-08T14:24:43.721Z,4.70
2023-02-08T14:27:32.544Z,4.80
2023-02-08T14:30:05.275Z,4.70
2023-02-08T14:32:38.933Z,4.70
2023-02-08T14:35:14.759Z,4.90
2023-02-08T14:37:44.538Z,4.70
2023-02-08T14:40:25.187Z,4.70
2023-02-08T14:42:59.226Z,4.70
2023-02-08T14:45:38.997Z,4.60
2023-02-08T14:48:19.188Z,4.80
2023-02-08T14:51:10.578Z,4.70
2023-02-08T14:53:46.586Z,4.60
2023-02-08T14:56:47.659Z,4.50
2023-02-08T14:59:19.208Z,4.60
2023-02-08T15:01:53.567Z,4.70
2023-02-08T15:04:21.124Z,4.50
2023-02-08T15:07:22.089Z,4.40
2023-02-08T15:09:49.127Z,4.30
2023-02-08T15:12:30.639Z,4.50
2023-02-08T15:15:01.212Z,4.40
2023-02-08T15:17:45.117Z,4.30
2023-02-08T15:20:27.718Z,4.20
2023-02-08T15:23:21.546Z,4.10
2023-02-08T15:26:05.908Z,4.10
2023-02-08T15:28:37.225Z,4.00
2023-02-08T15:31:15.066Z,4.20
2023-02-08T15:33:43.734Z,4.10
2023-02-08T15:36:34.789Z,4.10
2023-02-08T15:39:10.269Z,3.90
2023-02-08T15:41:38.317Z,3.80
2023-02-08T15:44:24.498Z,3.70
2023-02-08T15:49:38.140Z,3.60
2023-02-08T15:52:07.629Z,3.50
2023-02-08T15:54:34.823Z,3.60
2023-02-08T15:57:18.071Z,3.70
2023-02-08T15:59:47.389Z,3.50
2023-02-08T16:02:28.340Z,3.50
2023-02-08T16:04:56.962Z,3.30
2023-02-08T16:07:48.120Z,3.10
2023-02-08T16:10:38.735Z,3.10
2023-02-08T16:13:29.430Z,2.90
2023-02-08T16:16:15.569Z,2.90
2023-02-08T16:18:58.358Z,2.70
2023-02-08T16:21:25.386Z,2.70
2023-02-08T16:23:56.678Z,2.70
2023-02-08T16:26:23.549Z,2.80
2023-02-08T16:29:16.086Z,2.60
2023-02-08T16:31:47.030Z,2.40
2023-02-08T16:34:19.606Z,2.40
2023-02-08T16:36:51.268Z,2.40
2023-02-08T16:39:18.069Z,2.10
2023-02-08T16:42:00.960Z,2.20
2023-02-08T16:44:36.650Z,2.20
2023-02-08T16:47:28.117Z,2.10
2023-02-08T16:49:55.128Z,2.00
2023-02-08T16:52:22.130Z,2.00
2023-02-08T16:54:49.445Z,2.00
2023-02-08T16:57:16.393Z,2.00
2023-02-08T16:59:43.450Z,2.00
2023-02-08T17:02:13.571Z,2.00
2023-02-08T17:04:40.925Z,1.90
2023-02-08T17:07:18.732Z,2.00
2023-02-08T17:09:45.707Z,2.00
2023-02-08T17:12:21.795Z,2.10
2023-02-08T17:14:49.929Z,2.10
2023-02-08T17:17:17.906Z,2.00
2023-02-08T17:19:46.944Z,2.00
2023-02-08T17:22:13.951Z,1.90
2023-02-08T17:24:40.860Z,1.90
2023-02-08T17:27:12.225Z,1.80
2023-02-08T17:29:39.297Z,1.80
2023-02-08T17:32:06.420Z,1.90
2023-02-08T17:34:33.598Z,2.00
2023-02-08T17:37:00.661Z,2.00
2023-02-08T17:39:28.969Z,1.80
2023-02-08T17:41:55.909Z,1.60
2023-02-08T17:44:22.837Z,1.60
2023-02-08T17:46:50.314Z,1.40
2023-02-08T17:49:17.217Z,1.40
2023-02-08T17:51:44.198Z,1.40
2023-02-08T17:54:12.209Z,1.20
2023-02-08T17:56:39.368Z,1.10
2023-02-08T17:59:06.314Z,1.30
2023-02-08T18:01:33.570Z,1.70
2023-02-08T18:04:01.620Z,1.30
2023-02-08T18:06:29.941Z,1.20
2023-02-08T18:08:57.641Z,1.10
2023-02-08T18:11:24.606Z,1.20
2023-02-08T18:13:53.751Z,1.00
2023-02-08T18:16:25.692Z,1.10
2023-02-08T18:18:56.971Z,1.20
2023-02-08T18:21:25.762Z,1.20
2023-02-08T18:23:53.236Z,1.40
2023-02-08T18:26:25.293Z,1.40
2023-02-08T18:28:53.194Z,1.40
2023-02-08T18:31:22.092Z,1.40
2023-02-08T18:33:50.427Z,1.30
2023-02-08T18:36:19.209Z,1.40
2023-02-08T18:38:48.512Z,1.30
2023-02-08T18:41:23.514Z,1.40
2023-02-08T18:43:51.421Z,1.10
2023-02-08T18:46:21.683Z,1.20
2023-02-08T18:48:50.813Z,1.30
2023-02-08T18:51:19.648Z,1.50
2023-02-08T18:53:50.901Z,1.30
2023-02-08T18:56:24.147Z,1.40
2023-02-08T18:58:53.698Z,1.40
2023-02-08T19:01:24.536Z,1.20
2023-02-08T19:03:52.153Z,1.10
2023-02-08T19:06:24.365Z,1.10
2023-02-08T19:08:55.577Z,1.10
2023-02-08T19:11:24.086Z,1.00
2023-02-08T19:13:52.503Z,0.90
2023-02-08T19:16:22.319Z,1.00
2023-02-08T19:18:49.974Z,1.00
2023-02-08T19:21:17.995Z,1.00
2023-02-08T19:23:51.912Z,1.00
2023-02-08T19:26:25.840Z,1.00
2023-02-08T19:28:57.070Z,0.80
2023-02-08T19:31:25.644Z,0.70
2023-02-08T19:33:57.976Z,0.90
2023-02-08T19:36:38.293Z,0.70
2023-02-08T19:39:07.238Z,0.70
2023-02-08T19:41:38.475Z,0.60
2023-02-08T19:44:08.113Z,0.60
2023-02-08T19:46:38.819Z,0.60
2023-02-08T19:49:07.201Z,0.60
2023-02-08T19:51:37.082Z,0.70
2023-02-08T19:54:07.328Z,0.40
2023-02-08T19:56:34.846Z,0.40
2023-02-08T19:59:04.569Z,0.40
2023-02-08T20:01:36.244Z,0.50
2023-02-08T20:04:04.379Z,0.50
2023-02-08T20:06:36.170Z,0.60
2023-02-08T20:09:04.691Z,0.30
2023-02-08T20:11:37.068Z,0.20
2023-02-08T20:14:07.365Z,0.20
2023-02-08T20:16:34.823Z,0.00
2023-02-08T20:19:02.314Z,-0.10
2023-02-08T20:21:29.603Z,0.00
2023-02-08T20:23:56.829Z,0.00
2023-02-08T20:26:27.636Z,0.00
2023-02-08T20:28:58.265Z,0.00
2023-02-08T20:31:34.241Z,0.10
2023-02-08T20:34:07.761Z,0.20
2023-02-08T20:36:40.386Z,0.10
2023-02-08T20:39:11.958Z,0.10
2023-02-08T20:41:44.196Z,-0.10
2023-02-08T20:44:13.373Z,-0.10
2023-02-08T20:46:41.257Z,-0.30
2023-02-08T20:49:08.214Z,-0.40
2023-02-08T20:51:35.830Z,-0.40
2023-02-08T20:54:03.937Z,-0.50
2023-02-08T20:56:35.532Z,-0.40
2023-02-08T20:59:06.612Z,-0.30
2023-02-08T21:01:35.020Z,-0.30
2023-02-08T21:04:03.120Z,-0.20
2023-02-08T21:06:34.532Z,-0.10
2023-02-08T21:09:10.120Z,-0.10
2023-02-08T21:11:37.191Z,0.00
2023-02-08T21:14:07.944Z,0.00
2023-02-08T21:16:34.944Z,0.00
2023-02-08T21:19:01.882Z,-0.10
2023-02-08T21:21:29.010Z,-0.20
2023-02-08T21:23:57.859Z,-0.20
2023-02-08T21:26:26.158Z,-0.10
2023-02-08T21:28:57.223Z,-0.10
2023-02-08T21:31:26.781Z,-0.10
2023-02-08T21:33:54.626Z,-0.10
2023-02-08T21:36:23.984Z,-0.10
2023-02-08T21:38:51.842Z,-0.10
2023-02-08T21:41:23.200Z,-0.10
2023-02-08T21:43:52.840Z,-0.10
2023-02-08T21:46:20.250Z,-0.20
2023-02-08T21:49:06.553Z,-0.40
2023-02-08T21:51:51.887Z,-0.30
2023-02-08T21:54:41.572Z,-0.40
2023-02-08T21:57:27.413Z,-0.40
2023-02-08T21:59:58.616Z,-0.50
2023-02-08T22:02:29.132Z,-0.30
2023-02-08T22:04:58.906Z,-0.20
2023-02-08T22:07:27.661Z,-0.10
2023-02-08T22:09:54.882Z,-0.40
2023-02-08T22:12:23.100Z,-0.30
2023-02-08T22:14:50.455Z,-0.30
2023-02-08T22:17:18.375Z,-0.50
2023-02-08T22:19:45.424Z,-0.60
2023-02-08T22:22:12.468Z,-0.80
2023-02-08T22:24:39.655Z,-0.80
2023-02-08T22:27:06.610Z,-0.90
2023-02-08T22:29:33.669Z,-1.10
2023-02-08T22:32:01.277Z,-1.10
2023-02-08T22:34:28.691Z,-0.70
2023-02-08T22:36:55.687Z,-1.10
2023-02-08T22:39:22.713Z,-1.20
2023-02-08T22:41:49.818Z,-1.20
2023-02-08T22:44:17.049Z,-1.20
2023-02-08T22:46:44.097Z,-1.20
2023-02-08T22:49:11.127Z,-1.30
2023-02-08T22:51:38.464Z,-1.20
2023-02-08T22:54:06.987Z,-1.10
2023-02-08T22:56:34.300Z,-1.20
2023-02-08T22:59:01.375Z,-1.20
2023-02-08T23:01:28.286Z,-1.10
2023-02-08T23:03:55.315Z,-1.10
2023-02-08T23:06:22.203Z,-1.10
2023-02-08T23:08:49.237Z,-1.30
2023-02-08T23:11:16.925Z,-1.20
2023-02-08T23:13:43.931Z,-1.30
2023-02-08T23:16:15.750Z,-1.20
2023-02-08T23:18:43.711Z,-1.40
2023-02-08T23:21:14.359Z,-1.50
2023-02-08T23:23:41.521Z,-1.50
2023-02-08T23:26:11.799Z,-1.50
2023-02-08T23:28:39.643Z,-1.50
2023-02-08T23:31:08.663Z,-1.40
2023-02-08T23:33:37.283Z,-1.50
2023-02-08T23:36:11.238Z,-1.40
2023-02-08T23:38:39.094Z,-1.50
2023-02-08T23:41:09.441Z,-1.60
2023-02-08T23:43:36.602Z,-1.50
2023-02-08T23:46:25.463Z,-1.50
2023-02-08T23:48:52.892Z,-1.60
2023-02-08T23:51:22.936Z,-1.80
2023-02-08T23:53:51.390Z,-1.60
2023-02-08T23:56:28.273Z,-1.80
2023-02-08T23:58:58.358Z,-1.80
